createdAt,value
2022-10-01T00:00:33.618Z,9.00
2022-10-01T00:03:03.225Z,9.00
2022-10-01T00:05:35.422Z,9.00
2022-10-01T00:08:04.984Z,9.00
2022-10-01T00:10:34.959Z,9.00
2022-10-01T00:13:04.490Z,9.10
2022-10-01T00:15:34.016Z,9.10
2022-10-01T00:18:03.698Z,9.10
2022-10-01T00:20:35.858Z,9.00
2022-10-01T00:23:05.440Z,9.00
2022-10-01T00:25:35.071Z,9.00
2022-10-01T00:28:04.748Z,9.00
2022-10-01T00:30:38.404Z,9.10
2022-10-01T00:33:09.826Z,9.10
2022-10-01T00:35:42.247Z,9.10
2022-10-01T00:38:12.402Z,9.10
2022-10-01T00:40:42.310Z,9.10
2022-10-01T00:43:22.702Z,9.10
2022-10-01T00:45:54.477Z,9.00
2022-10-01T00:48:25.417Z,9.00
2022-10-01T00:50:57.623Z,9.00
2022-10-01T00:53:27.727Z,9.00
2022-10-01T00:56:00.051Z,9.00
2022-10-01T00:58:30.045Z,9.00
2022-10-01T01:00:59.899Z,9.00
2022-10-01T01:03:29.656Z,9.00
2022-10-01T01:06:01.786Z,9.00
2022-10-01T01:08:32.536Z,9.00
2022-10-01T01:11:05.705Z,8.90
2022-10-01T01:13:36.898Z,8.90
2022-10-01T01:16:08.926Z,8.90
2022-10-01T01:18:43.946Z,8.90
2022-10-01T01:21:22.565Z,8.90
2022-10-01T01:24:06.273Z,8.90
2022-10-01T01:26:38.909Z,8.80
2022-10-01T01:29:14.023Z,8.90
2022-10-01T01:31:46.304Z,8.90
2022-10-01T01:34:19.388Z,8.90
2022-10-01T01:36:51.047Z,8.90
2022-10-01T01:39:21.754Z,9.00
2022-10-01T01:41:53.364Z,9.00
2022-10-01T01:44:27.265Z,9.00
2022-10-01T01:46:58.569Z,9.10
2022-10-01T01:49:28.414Z,9.10
2022-10-01T01:52:01.165Z,9.10
2022-10-01T01:54:31.175Z,9.20
2022-10-01T01:57:01.712Z,9.20
2022-10-01T01:59:34.464Z,9.20
2022-10-01T02:02:07.434Z,9.30
2022-10-01T02:04:39.533Z,9.30
2022-10-01T02:07:20.428Z,9.40
2022-10-01T02:09:53.258Z,9.40
2022-10-01T02:12:30.375Z,9.40
2022-10-01T02:15:08.666Z,9.40
2022-10-01T02:17:42.971Z,9.40
2022-10-01T02:20:18.459Z,9.40
2022-10-01T02:22:51.808Z,9.50
2022-10-01T02:25:24.423Z,9.50
2022-10-01T02:27:56.150Z,9.50
2022-10-01T02:30:28.523Z,9.50
2022-10-01T02:32:59.401Z,9.50
2022-10-01T02:35:30.915Z,9.60
2022-10-01T02:38:03.536Z,9.60
2022-10-01T02:40:34.873Z,9.60
2022-10-01T02:43:06.776Z,9.60
2022-10-01T02:45:40.405Z,9.60
2022-10-01T02:48:11.173Z,9.60
2022-10-01T02:50:45.063Z,9.70
2022-10-01T02:53:20.170Z,9.60
2022-10-01T02:55:50.283Z,9.70
2022-10-01T02:58:18.262Z,9.70
2022-10-01T03:00:50.399Z,9.70
2022-10-01T03:03:20.080Z,9.70
2022-10-01T03:05:49.663Z,9.70
2022-10-01T03:08:19.510Z,9.60
2022-10-01T03:10:50.536Z,9.60
2022-10-01T03:13:22.011Z,9.70
2022-10-01T03:15:54.322Z,9.70
2022-10-01T03:18:23.914Z,9.60
2022-10-01T03:20:53.497Z,9.60
2022-10-01T03:23:23.075Z,9.60
2022-10-01T03:25:52.696Z,9.60
2022-10-01T03:28:22.281Z,9.60
2022-10-01T03:30:54.639Z,9.50
2022-10-01T03:33:24.229Z,9.50
2022-10-01T03:35:53.860Z,9.50
2022-10-01T03:38:23.428Z,9.50
2022-10-01T03:40:53.077Z,9.50
2022-10-01T03:43:22.669Z,9.50
2022-10-01T03:45:54.935Z,9.60
2022-10-01T03:48:24.877Z,9.60
2022-10-01T03:50:57.895Z,9.60
2022-10-01T03:53:27.754Z,9.60
2022-10-01T03:55:57.450Z,9.50
2022-10-01T03:58:27.028Z,9.60
2022-10-01T04:01:00.670Z,9.60
2022-10-01T04:03:30.885Z,9.60
2022-10-01T04:06:00.722Z,9.60
2022-10-01T04:08:30.261Z,9.70
2022-10-01T04:11:01.006Z,9.70
2022-10-01T04:13:31.332Z,9.70
2022-10-01T04:16:05.765Z,9.70
2022-10-01T04:18:35.759Z,9.50
2022-10-01T04:21:06.361Z,9.70
2022-10-01T04:23:35.904Z,9.70
2022-10-01T04:26:06.147Z,9.70
2022-10-01T04:28:35.841Z,9.70
2022-10-01T04:31:20.514Z,9.70
2022-10-01T04:33:50.240Z,9.70
2022-10-01T04:36:20.318Z,9.70
2022-10-01T04:38:50.033Z,9.70
2022-10-01T04:41:19.595Z,9.70
2022-10-01T04:43:49.232Z,9.60
2022-10-01T04:46:21.435Z,9.60
2022-10-01T04:48:51.894Z,9.70
2022-10-01T04:51:21.536Z,9.70
2022-10-01T04:53:51.100Z,9.70
2022-10-01T04:56:20.729Z,9.70
2022-10-01T04:58:50.760Z,9.70
2022-10-01T05:01:22.935Z,9.70
2022-10-01T05:03:52.742Z,9.70
2022-10-01T05:06:22.410Z,9.70
2022-10-01T05:08:52.210Z,9.70
2022-10-01T05:11:21.821Z,9.70
2022-10-01T05:13:51.381Z,9.70
2022-10-01T05:16:23.721Z,9.60
2022-10-01T05:18:53.282Z,9.80
2022-10-01T05:21:22.903Z,9.80
2022-10-01T05:23:52.522Z,9.80
2022-10-01T05:26:23.166Z,9.90
2022-10-01T05:28:54.185Z,9.90
2022-10-01T05:31:26.388Z,9.90
2022-10-01T05:33:55.977Z,10.00
2022-10-01T05:36:25.573Z,10.00
2022-10-01T05:38:55.157Z,10.00
2022-10-01T05:41:24.782Z,10.00
2022-10-01T05:43:54.456Z,10.10
2022-10-01T05:46:26.967Z,10.10
2022-10-01T05:48:56.841Z,10.10
2022-10-01T05:51:26.387Z,10.10
2022-10-01T05:53:59.014Z,10.00
2022-10-01T05:56:29.462Z,10.00
2022-10-01T05:58:59.605Z,10.10
2022-10-01T06:01:32.487Z,10.20
2022-10-01T06:04:02.423Z,10.10
2022-10-01T06:06:32.051Z,10.10
2022-10-01T06:09:02.359Z,10.00
2022-10-01T06:11:32.214Z,10.00
2022-10-01T06:14:02.271Z,9.90
2022-10-01T06:16:34.593Z,9.90
2022-10-01T06:19:04.334Z,9.90
2022-10-01T06:21:34.543Z,9.80
2022-10-01T06:24:04.450Z,9.80
2022-10-01T06:26:34.012Z,9.80
2022-10-01T06:29:03.674Z,9.70
2022-10-01T06:31:36.588Z,9.70
2022-10-01T06:34:06.762Z,9.60
2022-10-01T06:36:36.547Z,9.60
2022-10-01T06:39:06.181Z,9.60
2022-10-01T06:41:36.319Z,9.60
2022-10-01T06:44:06.100Z,9.60
2022-10-01T06:46:38.506Z,9.60
2022-10-01T06:49:08.073Z,9.60
2022-10-01T06:51:50.122Z,9.60
2022-10-01T06:54:20.010Z,9.60
2022-10-01T06:56:49.733Z,9.60
2022-10-01T06:59:19.297Z,9.70
2022-10-01T07:01:56.310Z,9.70
2022-10-01T07:04:26.112Z,9.70
2022-10-01T07:06:55.771Z,9.60
2022-10-01T07:09:26.289Z,9.70
2022-10-01T07:11:57.286Z,9.70
2022-10-01T07:14:26.900Z,9.70
2022-10-01T07:16:59.081Z,9.70
2022-10-01T07:19:28.601Z,9.70
2022-10-01T07:21:58.279Z,9.70
2022-10-01T07:24:27.925Z,9.70
2022-10-01T07:26:58.285Z,9.70
2022-10-01T07:29:37.802Z,9.70
2022-10-01T07:32:11.309Z,9.70
2022-10-01T07:34:41.815Z,9.70
2022-10-01T07:37:11.789Z,9.70
2022-10-01T07:39:41.457Z,9.70
2022-10-01T07:42:11.109Z,9.70
2022-10-01T07:44:40.668Z,9.70
2022-10-01T07:47:12.965Z,9.70
2022-10-01T07:49:42.716Z,9.60
2022-10-01T07:52:13.405Z,9.60
2022-10-01T07:54:43.239Z,9.60
2022-10-01T07:57:13.086Z,9.60
2022-10-01T07:59:43.540Z,9.60
2022-10-01T08:02:17.793Z,9.70
2022-10-01T08:04:59.898Z,9.70
2022-10-01T08:07:29.629Z,9.70
2022-10-01T08:09:59.233Z,9.70
2022-10-01T08:12:30.570Z,9.80
2022-10-01T08:15:01.216Z,9.90
2022-10-01T08:17:33.552Z,9.80
2022-10-01T08:20:03.520Z,9.80
2022-10-01T08:22:33.472Z,9.80
2022-10-01T08:25:03.172Z,9.80
2022-10-01T08:27:32.937Z,9.80
2022-10-01T08:30:02.771Z,9.80
2022-10-01T08:32:35.157Z,9.80
2022-10-01T08:35:05.137Z,9.80
2022-10-01T08:37:34.947Z,9.90
2022-10-01T08:40:04.630Z,9.90
2022-10-01T08:42:40.251Z,9.90
2022-10-01T08:45:14.789Z,9.90
2022-10-01T08:47:49.578Z,9.90
2022-10-01T08:50:25.719Z,10.00
2022-10-01T08:52:57.997Z,10.00
2022-10-01T08:55:32.001Z,10.00
2022-10-01T08:58:03.339Z,10.10
2022-10-01T09:00:33.988Z,10.10
2022-10-01T09:03:09.065Z,10.10
2022-10-01T09:05:44.518Z,10.10
2022-10-01T09:08:21.910Z,10.10
2022-10-01T09:10:54.567Z,10.30
2022-10-01T09:13:31.487Z,10.10
2022-10-01T09:16:05.255Z,10.20
2022-10-01T09:18:42.166Z,10.20
2022-10-01T09:21:20.997Z,10.30
2022-10-01T09:23:58.107Z,10.40
2022-10-01T09:26:27.724Z,10.40
2022-10-01T09:28:58.044Z,10.50
2022-10-01T09:31:30.340Z,10.60
2022-10-01T09:34:04.867Z,10.80
2022-10-01T09:36:37.632Z,10.70
2022-10-01T09:39:15.298Z,10.70
2022-10-01T09:41:45.771Z,10.90
2022-10-01T09:44:19.178Z,10.90
2022-10-01T09:46:49.229Z,10.90
2022-10-01T09:49:28.524Z,10.90
2022-10-01T09:52:02.662Z,10.90
2022-10-01T09:54:35.474Z,10.90
2022-10-01T09:57:08.905Z,11.00
2022-10-01T09:59:43.060Z,11.00
2022-10-01T10:02:18.071Z,11.00
2022-10-01T10:04:50.430Z,10.90
2022-10-01T10:07:21.550Z,10.90
2022-10-01T10:09:51.234Z,10.90
2022-10-01T10:12:28.555Z,11.00
2022-10-01T10:14:59.068Z,11.00
2022-10-01T10:17:28.683Z,11.10
2022-10-01T10:20:01.074Z,11.10
2022-10-01T10:22:30.975Z,11.20
2022-10-01T10:25:05.365Z,11.20
2022-10-01T10:27:36.383Z,11.20
2022-10-01T10:30:08.760Z,11.30
2022-10-01T10:32:38.556Z,11.20
2022-10-01T10:35:13.445Z,11.20
2022-10-01T10:37:48.482Z,11.20
2022-10-01T10:40:20.243Z,11.20
2022-10-01T10:42:50.848Z,11.20
2022-10-01T10:45:22.874Z,11.40
2022-10-01T10:47:54.332Z,11.50
2022-10-01T10:50:32.109Z,11.60
2022-10-01T10:53:01.932Z,11.70
2022-10-01T10:55:33.943Z,11.80
2022-10-01T10:58:12.479Z,11.90
2022-10-01T11:00:47.826Z,12.00
2022-10-01T11:03:18.431Z,11.90
2022-10-01T11:05:52.075Z,11.90
2022-10-01T11:08:22.942Z,11.80
2022-10-01T11:10:57.110Z,11.90
2022-10-01T11:13:33.593Z,11.90
2022-10-01T11:16:21.221Z,12.00
2022-10-01T11:18:58.458Z,12.10
2022-10-01T11:21:41.852Z,12.10
2022-10-01T11:24:22.433Z,12.20
2022-10-01T11:26:56.773Z,12.20
2022-10-01T11:29:35.613Z,12.20
2022-10-01T11:32:08.989Z,12.10
2022-10-01T11:34:53.463Z,12.00
2022-10-01T11:37:31.811Z,12.10
2022-10-01T11:40:02.926Z,12.10
2022-10-01T11:42:35.656Z,12.10
2022-10-01T11:45:06.973Z,12.10
2022-10-01T11:47:39.630Z,12.00
2022-10-01T11:50:15.850Z,12.00
2022-10-01T11:52:52.741Z,12.00
2022-10-01T11:55:37.016Z,12.00
2022-10-01T11:58:22.028Z,12.00
2022-10-01T12:00:56.745Z,12.10
2022-10-01T12:03:28.639Z,12.10
2022-10-01T12:05:59.554Z,12.20
2022-10-01T12:08:33.674Z,12.20
2022-10-01T12:11:07.516Z,12.10
2022-10-01T12:13:38.848Z,12.10
2022-10-01T12:16:11.254Z,12.20
2022-10-01T12:18:49.798Z,12.20
2022-10-01T12:21:22.852Z,12.20
2022-10-01T12:23:57.412Z,12.30
2022-10-01T12:26:31.260Z,12.40
2022-10-01T12:29:05.042Z,12.50
2022-10-01T12:31:39.565Z,12.60
2022-10-01T12:34:14.345Z,12.70
2022-10-01T12:36:48.365Z,12.70
2022-10-01T12:39:34.950Z,12.70
2022-10-01T12:42:10.725Z,12.80
2022-10-01T12:44:51.134Z,12.90
2022-10-01T12:47:28.126Z,12.90
2022-10-01T12:50:04.617Z,13.00
2022-10-01T12:52:42.163Z,13.00
2022-10-01T12:55:22.336Z,13.00
2022-10-01T12:57:58.318Z,13.00
2022-10-01T13:00:30.161Z,13.00
2022-10-01T13:03:20.682Z,13.10
2022-10-01T13:05:54.629Z,13.20
2022-10-01T13:08:30.444Z,13.30
2022-10-01T13:11:07.486Z,13.30
2022-10-01T13:13:38.426Z,13.30
2022-10-01T13:16:11.075Z,13.50
2022-10-01T13:18:45.185Z,13.40
2022-10-01T13:21:17.470Z,13.50
2022-10-01T13:23:49.743Z,13.60
2022-10-01T13:26:26.097Z,13.70
2022-10-01T13:29:01.298Z,13.70
2022-10-01T13:31:35.747Z,13.80
2022-10-01T13:34:05.545Z,14.00
2022-10-01T13:36:37.279Z,14.00
2022-10-01T13:39:07.339Z,14.30
2022-10-01T13:41:42.206Z,14.50
2022-10-01T13:44:22.996Z,14.70
2022-10-01T13:46:53.986Z,14.80
2022-10-01T13:49:25.356Z,14.90
2022-10-01T13:51:55.351Z,15.10
2022-10-01T13:54:27.903Z,15.20
2022-10-01T13:57:09.549Z,15.50
2022-10-01T13:59:39.911Z,15.60
2022-10-01T14:02:32.157Z,15.50
2022-10-01T14:05:07.920Z,15.50
2022-10-01T14:07:40.048Z,15.50
2022-10-01T14:10:13.867Z,15.40
2022-10-01T14:13:00.147Z,15.20
2022-10-01T14:15:48.067Z,15.10
2022-10-01T14:18:19.382Z,15.00
2022-10-01T14:20:54.475Z,14.90
2022-10-01T14:23:27.132Z,14.80
2022-10-01T14:25:58.257Z,14.80
2022-10-01T14:28:38.881Z,14.80
2022-10-01T14:31:11.574Z,14.80
2022-10-01T14:33:57.076Z,14.90
2022-10-01T14:36:29.699Z,15.10
2022-10-01T14:39:06.568Z,15.10
2022-10-01T14:41:36.788Z,15.10
2022-10-01T14:44:20.894Z,15.00
2022-10-01T14:46:50.761Z,14.90
2022-10-01T14:49:24.359Z,14.80
2022-10-01T14:51:55.486Z,14.80
2022-10-01T14:54:25.853Z,14.90
2022-10-01T14:56:55.791Z,15.10
2022-10-01T14:59:32.787Z,15.50
2022-10-01T15:02:03.625Z,15.80
2022-10-01T15:04:33.292Z,15.80
2022-10-01T15:07:06.346Z,15.90
2022-10-01T15:09:36.746Z,15.80
2022-10-01T15:12:08.823Z,16.00
2022-10-01T15:14:41.181Z,16.20
2022-10-01T15:17:15.255Z,16.80
2022-10-01T15:19:47.346Z,18.10
2022-10-01T15:22:16.904Z,19.80
2022-10-01T15:24:47.525Z,20.40
2022-10-01T15:27:20.161Z,20.80
2022-10-01T15:29:56.307Z,21.00
2022-10-01T15:32:28.023Z,20.70
2022-10-01T15:34:58.130Z,19.20
2022-10-01T15:37:31.471Z,18.40
2022-10-01T15:40:01.899Z,17.60
2022-10-01T15:42:32.991Z,17.20
2022-10-01T15:45:23.393Z,16.90
2022-10-01T15:47:57.175Z,16.50
2022-10-01T15:50:27.549Z,16.10
2022-10-01T15:53:03.801Z,15.90
2022-10-01T15:55:37.754Z,15.60
2022-10-01T15:58:09.683Z,15.50
2022-10-01T16:00:44.244Z,15.40
2022-10-01T16:03:24.981Z,15.30
2022-10-01T16:05:57.256Z,15.20
2022-10-01T16:08:34.333Z,15.10
2022-10-01T16:11:11.765Z,15.00
2022-10-01T16:13:44.957Z,14.90
2022-10-01T16:16:25.471Z,14.90
